This is the latest recevied weather packets stored in our database for station/object SV1RVP-13. If no packets are shown the sender has not sent any weather packets the latest 10 day(s).
| Time | Temp. | Humidity | Pressure | Rain* | Wind** | Luminosity | Snow |
|---|---|---|---|---|---|---|---|
| 1777912721 | 17.22° C | 58% | 1017.3 hPa | 0 mm | - | - | - |
| 1777912137 | 17.22° C | 57% | 1017.2 hPa | 0 mm | - | - | - |
| 1777911507 | 17.78° C | 55% | 1017.1 hPa | 0 mm | - | - | - |
| 1777910907 | 17.78° C | 54% | 1017.1 hPa | 0 mm | - | - | - |
| 1777910322 | 18.33° C | 52% | 1017.1 hPa | 0 mm | - | - | - |
| 1777909713 | 18.33° C | 52% | 1017 hPa | 0 mm | - | - | - |
| 1777909112 | 18.89° C | 51% | 1017 hPa | 0 mm | - | - | - |
| 1777908528 | 18.89° C | 51% | 1016.9 hPa | 0 mm | - | - | - |
| 1777907919 | 19.44° C | 43% | 1017.1 hPa | 0 mm | - | - | - |
| 1777907323 | 19.44° C | 44% | 1017.1 hPa | 0 mm | - | - | - |
| 1777906716 | 20.56° C | 33% | 1017.1 hPa | 0 mm | - | - | - |
| 1777906109 | 20.56° C | 32% | 1017.1 hPa | 0 mm | - | - | - |
| 1777905509 | 20.56° C | 33% | 1017.1 hPa | 0 mm | - | - | - |
| 1777904918 | 20.56° C | 35% | 1017.2 hPa | 0 mm | - | - | - |
| 1777904318 | 20.56° C | 34% | 1017.1 hPa | 0 mm | - | - | - |
| 1777903707 | 20.56° C | 33% | 1017.1 hPa | 0 mm | - | - | - |
| 1777903131 | 20.56° C | 33% | 1017.2 hPa | 0 mm | - | - | - |
| 1777902520 | 20° C | 34% | 1017.1 hPa | 0 mm | - | - | - |
| 1777901915 | 20° C | 35% | 1017.3 hPa | 0 mm | - | - | - |
| 1777901336 | 20° C | 35% | 1017.3 hPa | 0 mm | - | - | - |
| 1777900725 | 20° C | 35% | 1017.3 hPa | 0 mm | - | - | - |
| 1777900129 | 20° C | 35% | 1017.3 hPa | 0 mm | - | - | - |
| 1777899522 | 19.44° C | 36% | 1017.4 hPa | 0 mm | - | - | - |
| 1777898914 | 19.44° C | 36% | 1017.4 hPa | 0 mm | - | - | - |
| 1777898309 | 19.44° C | 37% | 1017.3 hPa | 0 mm | - | - | - |
* Rain since midnight (hover to see other rain measurements)
** Current wind speed in m/s (hover to see current wind gust speed)